Time,TemperatureF,DewpointF,PressureIn,WindDirection,WindDirectionDegrees,WindSpeedMPH,WindSpeedGustMPH,Humidity,HourlyPrecipIn,Conditions,Clouds,dailyrainin,SoftwareType,DateUTC
2013-03-09 00:03:00,35.7,34.0,30.03,East,92,0.0,-999.0,95,-99.99,,,0.00,weatherlink.com 1.10,2013-03-09 08:03:00,
2013-03-09 00:18:00,35.3,34.0,30.04,East,92,0.0,-999.0,95,-99.99,,,0.00,weatherlink.com 1.10,2013-03-09 08:18:00,
2013-03-09 00:33:00,35.3,34.0,30.05,East,92,0.0,-999.0,95,-99.99,,,0.00,weatherlink.com 1.10,2013-03-09 08:33:00,
2013-03-09 00:48:00,34.7,34.0,30.05,East,92,0.0,-999.0,95,-99.99,,,0.00,weatherlink.com 1.10,2013-03-09 08:48:00,
2013-03-09 01:03:00,34.6,34.0,30.07,East,92,0.0,-999.0,96,-99.99,,,0.00,weatherlink.com 1.10,2013-03-09 09:03:00,
2013-03-09 01:18:00,34.3,33.0,30.07,East,92,0.0,-999.0,96,-99.99,,,0.00,weatherlink.com 1.10,2013-03-09 09:18:00,
2013-03-09 01:33:00,34.0,33.0,30.08,East,92,0.0,-999.0,96,-99.99,,,0.00,weatherlink.com 1.10,2013-03-09 09:33:00,
2013-03-09 01:48:00,33.8,33.0,30.08,East,92,0.0,-999.0,96,-99.99,,,0.00,weatherlink.com 1.10,2013-03-09 09:48:00,
2013-03-09 02:03:00,33.4,32.0,30.08,East,92,0.0,-999.0,96,-99.99,,,0.00,weatherlink.com 1.10,2013-03-09 10:03:00,
2013-03-09 02:18:00,33.1,32.0,30.08,East,92,0.0,-999.0,96,-99.99,,,0.00,weatherlink.com 1.10,2013-03-09 10:18:00,
2013-03-09 02:33:00,32.9,32.0,30.08,East,92,0.0,-999.0,96,-99.99,,,0.00,weatherlink.com 1.10,2013-03-09 10:33:00,
2013-03-09 02:48:00,32.6,32.0,30.08,East,92,0.0,-999.0,98,-99.99,,,0.00,weatherlink.com 1.10,2013-03-09 10:48:00,
2013-03-09 03:03:00,32.2,32.0,30.08,East,92,0.0,-999.0,98,-99.99,,,0.00,weatherlink.com 1.10,2013-03-09 11:03:00,
2013-03-09 03:18:00,31.9,31.0,30.08,East,92,0.0,-999.0,98,-99.99,,,0.00,weatherlink.com 1.10,2013-03-09 11:18:00,
2013-03-09 03:33:00,31.7,31.0,30.08,East,92,0.0,-999.0,98,-99.99,,,0.00,weatherlink.com 1.10,2013-03-09 11:33:00,
2013-03-09 03:48:00,31.7,31.0,30.09,East,92,0.0,-999.0,98,-99.99,,,0.00,weatherlink.com 1.10,2013-03-09 11:48:00,
2013-03-09 04:03:00,31.6,31.0,30.11,East,92,0.0,-999.0,98,-99.99,,,0.00,weatherlink.com 1.10,2013-03-09 12:03:00,
2013-03-09 04:18:00,31.7,32.0,30.11,East,92,0.0,-999.0,99,-99.99,,,0.00,weatherlink.com 1.10,2013-03-09 12:18:00,
2013-03-09 04:33:00,31.9,32.0,30.13,East,92,0.0,-999.0,99,-99.99,,,0.00,weatherlink.com 1.10,2013-03-09 12:33:00,
2013-03-09 04:48:00,32.0,32.0,30.13,East,92,0.0,-999.0,99,-99.99,,,0.00,weatherlink.com 1.10,2013-03-09 12:48:00,
2013-03-09 05:03:00,31.6,31.0,30.14,East,92,0.0,-999.0,99,-99.99,,,0.00,weatherlink.com 1.10,2013-03-09 13:03:00,
2013-03-09 05:18:00,31.2,31.0,30.16,East,92,0.0,-999.0,99,-99.99,,,0.00,weatherlink.com 1.10,2013-03-09 13:18:00,
2013-03-09 05:33:00,31.0,31.0,30.16,East,92,0.0,-999.0,99,-99.99,,,0.00,weatherlink.com 1.10,2013-03-09 13:33:00,
2013-03-09 05:48:00,30.7,31.0,30.18,East,92,0.0,-999.0,99,-99.99,,,0.00,weatherlink.com 1.10,2013-03-09 13:48:00,
2013-03-09 06:03:00,30.6,30.0,30.19,East,92,0.0,-999.0,99,-99.99,,,0.00,weatherlink.com 1.10,2013-03-09 14:03:00,
2013-03-09 06:18:00,30.4,30.0,30.20,East,92,0.0,-999.0,99,-99.99,,,0.00,weatherlink.com 1.10,2013-03-09 14:18:00,
2013-03-09 06:33:00,30.3,30.0,30.20,East,92,0.0,-999.0,99,-99.99,,,0.00,weatherlink.com 1.10,2013-03-09 14:33:00,
2013-03-09 06:48:00,30.3,30.0,30.21,East,92,0.0,-999.0,99,-99.99,,,0.00,weatherlink.com 1.10,2013-03-09 14:48:00,
2013-03-09 07:03:00,30.9,31.0,30.21,East,92,0.0,-999.0,99,-99.99,,,0.00,weatherlink.com 1.10,2013-03-09 15:03:00,
2013-03-09 07:18:00,31.9,32.0,30.22,East,92,0.0,-999.0,99,-99.99,,,0.00,weatherlink.com 1.10,2013-03-09 15:18:00,
2013-03-09 07:33:00,34.4,34.0,30.23,East,92,0.0,-999.0,100,-99.99,,,0.00,weatherlink.com 1.10,2013-03-09 15:33:00,
2013-03-09 07:48:00,37.0,37.0,30.23,East,92,0.0,-999.0,100,-99.99,,,0.00,weatherlink.com 1.10,2013-03-09 15:48:00,
2013-03-09 08:03:00,40.0,40.0,30.24,East,92,0.0,-999.0,100,-99.99,,,0.00,weatherlink.com 1.10,2013-03-09 16:03:00,
2013-03-09 08:18:00,42.3,42.0,30.24,East,92,0.0,-999.0,100,-99.99,,,0.00,weatherlink.com 1.10,2013-03-09 16:18:00,
2013-03-09 08:33:00,44.6,45.0,30.25,East,80,0.0,-999.0,100,-99.99,,,0.00,weatherlink.com 1.10,2013-03-09 16:33:00,
2013-03-09 08:48:00,46.1,43.0,30.25,ENE,75,0.0,-999.0,89,-99.99,,,0.00,weatherlink.com 1.10,2013-03-09 16:48:00,
2013-03-09 09:03:00,48.4,43.0,30.25,ENE,75,1.0,-999.0,81,-99.99,,,0.00,weatherlink.com 1.10,2013-03-09 17:03:00,
2013-03-09 09:18:00,50.5,41.0,30.25,ENE,74,1.0,-999.0,71,-99.99,,,0.00,weatherlink.com 1.10,2013-03-09 17:18:00,
2013-03-09 09:33:00,52.4,42.0,30.25,NE,50,0.0,-999.0,67,-99.99,,,0.00,weatherlink.com 1.10,2013-03-09 17:33:00,
2013-03-09 09:48:00,53.3,41.0,30.26,North,9,0.0,-999.0,64,-99.99,,,0.00,weatherlink.com 1.10,2013-03-09 17:48:00,
2013-03-09 10:03:00,54.5,41.0,30.26,SSW,206,2.0,-999.0,60,-99.99,,,0.00,weatherlink.com 1.10,2013-03-09 18:03:00,
2013-03-09 10:18:00,56.0,42.0,30.26,ENE,68,2.0,-999.0,60,-99.99,,,0.00,weatherlink.com 1.10,2013-03-09 18:18:00,
2013-03-09 10:33:00,58.1,42.0,30.27,East,95,1.0,-999.0,55,-99.99,,,0.00,weatherlink.com 1.10,2013-03-09 18:33:00,
2013-03-09 10:48:00,59.0,42.0,30.27,East,82,0.0,-999.0,53,-99.99,,,0.00,weatherlink.com 1.10,2013-03-09 18:48:00,
2013-03-09 11:03:00,60.3,42.0,30.27,NE,40,0.0,-999.0,52,-99.99,,,0.00,weatherlink.com 1.10,2013-03-09 19:03:00,
2013-03-09 11:18:00,61.4,42.0,30.27,NNE,24,0.0,-999.0,50,-99.99,,,0.00,weatherlink.com 1.10,2013-03-09 19:18:00,
2013-03-09 11:33:00,62.5,43.0,30.27,NNE,30,2.0,-999.0,50,-99.99,,,0.00,weatherlink.com 1.10,2013-03-09 19:33:00,
2013-03-09 11:48:00,62.8,40.0,30.26,ENE,59,3.0,-999.0,44,-99.99,,,0.00,weatherlink.com 1.10,2013-03-09 19:48:00,
2013-03-09 12:03:00,64.0,41.0,30.27,SSW,192,0.0,-999.0,44,-99.99,,,0.00,weatherlink.com 1.10,2013-03-09 20:03:00,
2013-03-09 12:18:00,64.9,41.0,30.26,North,5,0.0,-999.0,42,-99.99,,,0.00,weatherlink.com 1.10,2013-03-09 20:18:00,
2013-03-09 12:34:00,66.1,41.0,30.25,ESE,119,0.0,-999.0,40,-99.99,,,0.00,weatherlink.com 1.10,2013-03-09 20:34:00,
2013-03-09 12:49:00,67.1,40.0,30.25,NE,38,0.0,-999.0,37,-99.99,,,0.00,weatherlink.com 1.10,2013-03-09 20:49:00,
2013-03-09 13:04:00,67.7,40.0,30.25,NE,34,2.0,-999.0,37,-99.99,,,0.00,weatherlink.com 1.10,2013-03-09 21:04:00,
2013-03-09 13:19:00,67.7,40.0,30.25,ENE,78,2.0,-999.0,37,-99.99,,,0.00,weatherlink.com 1.10,2013-03-09 21:19:00,
2013-03-09 13:34:00,68.1,39.0,30.25,SE,135,2.0,-999.0,35,-99.99,,,0.00,weatherlink.com 1.10,2013-03-09 21:34:00,
2013-03-09 13:49:00,69.1,39.0,30.24,SE,140,0.0,-999.0,33,-99.99,,,0.00,weatherlink.com 1.10,2013-03-09 21:49:00,
2013-03-09 14:04:00,70.3,45.0,30.24,SSE,155,1.0,-999.0,40,-99.99,,,0.00,weatherlink.com 1.10,2013-03-09 22:04:00,
2013-03-09 14:19:00,69.6,46.0,30.25,ESE,113,0.0,-999.0,43,-99.99,,,0.00,weatherlink.com 1.10,2013-03-09 22:19:00,
2013-03-09 14:34:00,69.6,46.0,30.24,SSE,159,0.0,-999.0,43,-99.99,,,0.00,weatherlink.com 1.10,2013-03-09 22:34:00,
2013-03-09 14:49:00,68.7,40.0,30.24,NNW,346,0.0,-999.0,35,-99.99,,,0.00,weatherlink.com 1.10,2013-03-09 22:49:00,
2013-03-09 15:04:00,67.9,40.0,30.24,East,101,3.0,-999.0,36,-99.99,,,0.00,weatherlink.com 1.10,2013-03-09 23:04:00,
2013-03-09 15:19:00,67.6,43.0,30.23,SE,136,0.0,-999.0,41,-99.99,,,0.00,weatherlink.com 1.10,2013-03-09 23:19:00,
2013-03-09 15:34:00,67.4,43.0,30.24,SSE,154,0.0,-999.0,42,-99.99,,,0.00,weatherlink.com 1.10,2013-03-09 23:34:00,
2013-03-09 15:49:00,66.7,40.0,30.23,NNW,342,0.0,-999.0,38,-99.99,,,0.00,weatherlink.com 1.10,2013-03-09 23:49:00,
2013-03-09 16:04:00,66.1,41.0,30.24,North,360,0.0,-999.0,40,-99.99,,,0.00,weatherlink.com 1.10,2013-03-10 00:04:00,
2013-03-09 16:19:00,65.4,40.0,30.23,SE,141,0.0,-999.0,39,-99.99,,,0.00,weatherlink.com 1.10,2013-03-10 00:19:00,
2013-03-09 16:34:00,64.8,42.0,30.24,SE,141,0.0,-999.0,44,-99.99,,,0.00,weatherlink.com 1.10,2013-03-10 00:34:00,
2013-03-09 16:49:00,63.5,44.0,30.23,SE,141,0.0,-999.0,50,-99.99,,,0.00,weatherlink.com 1.10,2013-03-10 00:49:00,
2013-03-09 17:04:00,61.2,47.0,30.23,SE,141,0.0,-999.0,60,-99.99,,,0.00,weatherlink.com 1.10,2013-03-10 01:04:00,
2013-03-09 17:19:00,59.2,47.0,30.24,SE,141,0.0,-999.0,65,-99.99,,,0.00,weatherlink.com 1.10,2013-03-10 01:19:00,
2013-03-09 17:34:00,57.4,46.0,30.24,SE,141,0.0,-999.0,67,-99.99,,,0.00,weatherlink.com 1.10,2013-03-10 01:34:00,
2013-03-09 17:49:00,56.0,46.0,30.24,SE,142,0.0,-999.0,69,-99.99,,,0.00,weatherlink.com 1.10,2013-03-10 01:49:00,
2013-03-09 18:04:00,54.7,45.0,30.25,SE,142,0.0,-999.0,71,-99.99,,,0.00,weatherlink.com 1.10,2013-03-10 02:04:00,
2013-03-09 18:19:00,52.9,44.0,30.25,SE,142,0.0,-999.0,72,-99.99,,,0.00,weatherlink.com 1.10,2013-03-10 02:19:00,
2013-03-09 18:34:00,51.7,45.0,30.26,SE,142,0.0,-999.0,77,-99.99,,,0.00,weatherlink.com 1.10,2013-03-10 02:34:00,
2013-03-09 18:50:00,50.4,44.0,30.27,SE,142,0.0,-999.0,79,-99.99,,,0.00,weatherlink.com 1.10,2013-03-10 02:50:00,
2013-03-09 19:05:00,49.2,44.0,30.27,SE,142,0.0,-999.0,82,-99.99,,,0.00,weatherlink.com 1.10,2013-03-10 03:05:00,
2013-03-09 19:20:00,48.0,43.0,30.27,SE,142,0.0,-999.0,83,-99.99,,,0.00,weatherlink.com 1.10,2013-03-10 03:20:00,
2013-03-09 19:35:00,46.8,43.0,30.28,SE,142,0.0,-999.0,85,-99.99,,,0.00,weatherlink.com 1.10,2013-03-10 03:35:00,
2013-03-09 19:50:00,45.9,42.0,30.28,SE,142,0.0,-999.0,87,-99.99,,,0.00,weatherlink.com 1.10,2013-03-10 03:50:00,
2013-03-09 20:05:00,45.2,42.0,30.28,SE,142,0.0,-999.0,89,-99.99,,,0.00,weatherlink.com 1.10,2013-03-10 04:05:00,
2013-03-09 20:20:00,44.2,41.0,30.29,SE,142,0.0,-999.0,89,-99.99,,,0.00,weatherlink.com 1.10,2013-03-10 04:20:00,
2013-03-09 20:35:00,43.3,41.0,30.29,SE,142,0.0,-999.0,90,-99.99,,,0.00,weatherlink.com 1.10,2013-03-10 04:35:00,
2013-03-09 20:50:00,42.9,41.0,30.29,SE,142,0.0,-999.0,92,-99.99,,,0.00,weatherlink.com 1.10,2013-03-10 04:50:00,
2013-03-09 21:05:00,42.7,41.0,30.30,SE,142,0.0,-999.0,93,-99.99,,,0.00,weatherlink.com 1.10,2013-03-10 05:05:00,
2013-03-09 21:20:00,42.3,41.0,30.30,SE,142,0.0,-999.0,93,-99.99,,,0.00,weatherlink.com 1.10,2013-03-10 05:20:00,
2013-03-09 21:35:00,41.7,40.0,30.31,SE,142,0.0,-999.0,93,-99.99,,,0.00,weatherlink.com 1.10,2013-03-10 05:35:00,
2013-03-09 21:50:00,41.0,39.0,30.30,SE,142,0.0,-999.0,94,-99.99,,,0.00,weatherlink.com 1.10,2013-03-10 05:50:00,
2013-03-09 22:05:00,40.7,39.0,30.30,SE,142,0.0,-999.0,95,-99.99,,,0.00,weatherlink.com 1.10,2013-03-10 06:05:00,
2013-03-09 22:20:00,40.3,39.0,30.30,SE,142,0.0,-999.0,95,-99.99,,,0.00,weatherlink.com 1.10,2013-03-10 06:20:00,
2013-03-09 22:35:00,39.7,38.0,30.30,SE,142,0.0,-999.0,95,-99.99,,,0.00,weatherlink.com 1.10,2013-03-10 06:35:00,
2013-03-09 22:50:00,39.3,38.0,30.30,SE,142,0.0,-999.0,96,-99.99,,,0.00,weatherlink.com 1.10,2013-03-10 06:50:00,
2013-03-09 23:05:00,39.3,38.0,30.31,SE,142,0.0,-999.0,96,-99.99,,,0.00,weatherlink.com 1.10,2013-03-10 07:05:00,
2013-03-09 23:20:00,38.7,38.0,30.31,SE,142,0.0,-999.0,96,-99.99,,,0.00,weatherlink.com 1.10,2013-03-10 07:20:00,
2013-03-09 23:35:00,38.3,37.0,30.30,SE,142,0.0,-999.0,96,-99.99,,,0.00,weatherlink.com 1.10,2013-03-10 07:35:00,
2013-03-09 23:50:00,38.0,37.0,30.30,SE,142,0.0,-999.0,96,-99.99,,,0.00,weatherlink.com 1.10,2013-03-10 07:50:00,